Guymon, OK (73942)

4:40 AM CST on December 22, 2014 (GMT -0600)
Guymon Municipal | Change Station
CLOSE
Current Station
Airport
Location: Guymon,
Elevation: 3123 ft
Nearby Weather Stations

Elev 3123 ft 36.68 °N, 101.51 °W | Updated 47 minutes ago

Overcast
Overcast
50 °F
Feels Like 50 °F
N
18
Wind Variable Wind from NNW
Gusts 28 mph

Today
High -- | Low -- °F
--% Chance of Precip.
Yesterday
High -- | Low -- °F
Precip. -- in
7:55 AM 5:34 PM
New Moon, 0% visible
Pressure 29.53 in
Visibility 10.0 miles
Clouds Overcast 8500 ft
Dew Point 35 °F
Humidity 57%
Rainfall 0.00 in
Snow Depth Not available.
UV 0 out of 12
Pollen 8.10 out of 12
Air Quality Not available.
Flu Activity Not available.
METAR KGUY 220953Z AUTO 33016G24KT 10SM OVC085 10/02 A2959 RMK AO2 SLP999 T01000017

More Conditions Fewer Conditions

Pressure 29.53 in
Visibility 10.0 miles
Clouds Overcast 8500 ft
Dew Point 35 °F
Humidity 57%
Rainfall 0.00 in
Snow Depth Not available.
UV 0 out of 12
Pollen 8.10 out of 12
Air Quality Not available.
Flu Activity Not available.
METAR KGUY 220953Z AUTO 33016G24KT 10SM OVC085 10/02 A2959 RMK AO2 SLP999 T01000017

More Conditions Fewer Conditions

10-Day Weather Forecast

Almanac

Astronomy

Dec. 22, 2014 Rise Set
Actual Time
Civil Twilight
Nautical Twilight
Astronomical Twilight
Moon
Length of Visible Light
Length of Day
Tomorrow will be .
, % of the Moon is Illuminated

Today's Extremes

State Highs State Lows

Community

WunderPhotos

Upload Photos

1,779,583 photos uploaded!

WunderBlogs® & News

Nearby

Air Quality

  Air Quality AQ Index Pollutant
Not available.

Snow Depth

Station Depth Elevation

Earthquake Activity

City Distance Mag. Time & Date
Minimum magnitude displayed is 2.5.

Coastal Water Temperatures

Place Temperature

Nearby Weather Stations